Time;durP1;ratioP1;P1;durP2;ratioP2;P2;SDS_P1;SDS_P2;PMS_P1;PMS_P2;Temp;Humidity;BMP_temperature;BMP_pressure;BME280_temperature;BME280_humidity;BME280_pressure;Samples;Min_cycle;Max_cycle;Signal;HPM_P1;HPM_P2
2023/09/18 00:02:25;;;;;;;40.30;8.03;;;16.30;99.90;;;;;;6208933;23;20190;-88
2023/09/18 00:04:52;;;;;;;18.93;10.20;;;16.30;99.90;;;;;;6163341;23;20154;-88
2023/09/18 00:07:17;;;;;;;46.33;9.93;;;16.20;99.90;;;;;;6213712;23;20277;-88
2023/09/18 00:09:43;;;;;;;35.17;9.97;;;16.20;99.90;;;;;;6187518;23;20229;-87
2023/09/18 00:12:09;;;;;;;16.87;8.93;;;16.20;99.90;;;;;;6163133;23;20194;-87
2023/09/18 00:14:36;;;;;;;89.40;10.83;;;16.20;99.90;;;;;;6213062;23;20189;-88
2023/09/18 00:17:03;;;;;;;17.63;9.83;;;16.20;99.90;;;;;;6162691;23;20654;-88
2023/09/18 00:19:29;;;;;;;23.00;9.07;;;16.10;99.90;;;;;;6188342;23;20496;-87
2023/09/18 00:21:56;;;;;;;14.33;8.50;;;16.10;99.90;;;;;;6165167;23;20193;-88
2023/09/18 00:24:22;;;;;;;23.60;8.63;;;16.10;99.90;;;;;;6189075;23;20205;-87
2023/09/18 00:26:48;;;;;;;18.40;9.47;;;16.10;99.90;;;;;;6163918;23;20209;-87
2023/09/18 00:29:14;;;;;;;24.83;8.87;;;16.10;99.90;;;;;;6188369;23;20194;-87
2023/09/18 00:31:40;;;;;;;17.17;9.40;;;16.10;99.90;;;;;;6160577;23;20480;-87
2023/09/18 00:34:06;;;;;;;32.87;8.47;;;16.20;99.90;;;;;;6161735;23;20201;-87
2023/09/18 00:36:32;;;;;;;30.77;9.47;;;16.10;99.90;;;;;;6189380;23;20208;-87
2023/09/18 00:38:57;;;;;;;25.50;8.63;;;16.10;99.90;;;;;;6164448;23;20198;-87
2023/09/18 00:41:23;;;;;;;33.07;9.43;;;16.20;99.90;;;;;;6163776;23;20194;-86
2023/09/18 00:43:49;;;;;;;35.03;9.23;;;16.10;99.90;;;;;;6164444;23;20194;-86
2023/09/18 00:46:15;;;;;;;50.77;11.57;;;16.20;99.90;;;;;;6163798;23;20190;-86
2023/09/18 00:48:41;;;;;;;34.83;11.33;;;16.20;99.90;;;;;;6213320;23;20225;-87
2023/09/18 00:51:08;;;;;;;54.57;10.13;;;16.20;99.90;;;;;;6163523;23;20208;-86
2023/09/18 00:53:34;;;;;;;29.90;11.77;;;16.20;99.90;;;;;;6163850;23;20194;-86
2023/09/18 00:56:02;;;;;;;17.20;10.73;;;16.20;99.90;;;;;;6188061;23;20162;-86
2023/09/18 00:58:28;;;;;;;30.23;9.63;;;16.20;99.90;;;;;;6210546;23;20184;-86
2023/09/18 01:00:55;;;;;;;40.93;8.77;;;16.20;99.90;;;;;;6183303;23;20209;-86
2023/09/18 01:03:22;;;;;;;16.40;8.33;;;16.20;99.90;;;;;;6185366;23;20193;-86
2023/09/18 01:05:48;;;;;;;13.43;9.77;;;16.10;99.90;;;;;;6188357;23;20197;-86
2023/09/18 01:08:14;;;;;;;16.37;7.93;;;16.10;99.90;;;;;;6163607;23;20205;-86
2023/09/18 01:11:05;;;;;;;14.97;8.77;;;16.10;99.90;;;;;;6189071;23;20224;-86
2023/09/18 01:13:45;;;;;;;16.30;8.93;;;16.00;99.90;;;;;;6238636;23;20216;-85
2023/09/18 01:16:17;;;;;;;12.97;8.73;;;16.00;99.90;;;;;;6212755;23;20647;-85
2023/09/18 01:18:52;;;;;;;15.93;8.57;;;16.00;99.90;;;;;;6212504;23;20221;-86
2023/09/18 01:21:21;;;;;;;12.70;8.93;;;16.00;99.90;;;;;;6188144;23;20197;-86
2023/09/18 01:23:49;;;;;;;15.13;9.77;;;15.90;99.90;;;;;;6213189;23;20281;-87
2023/09/18 01:26:14;;;;;;;13.33;8.80;;;15.90;99.90;;;;;;6214850;23;20201;-86
2023/09/18 01:28:40;;;;;;;15.90;7.83;;;15.90;99.90;;;;;;6188753;23;20186;-86
2023/09/18 01:31:06;;;;;;;21.33;9.40;;;15.90;99.90;;;;;;6162871;23;20202;-86
2023/09/18 01:33:34;;;;;;;14.37;8.10;;;15.90;99.90;;;;;;6212458;23;20194;-86
2023/09/18 01:36:01;;;;;;;37.33;10.30;;;15.80;99.90;;;;;;6213119;23;20263;-86
2023/09/18 01:38:28;;;;;;;43.53;11.37;;;15.80;99.90;;;;;;6212653;23;20276;-86
2023/09/18 01:40:54;;;;;;;28.77;8.60;;;15.90;99.90;;;;;;6188298;23;20525;-86
2023/09/18 01:43:20;;;;;;;28.07;9.77;;;15.80;99.90;;;;;;6164068;23;20253;-87
2023/09/18 01:45:47;;;;;;;48.83;10.90;;;15.90;99.90;;;;;;6163185;23;20233;-86
2023/09/18 01:48:13;;;;;;;22.60;10.33;;;15.80;99.90;;;;;;6212525;23;20297;-87
2023/09/18 01:50:40;;;;;;;28.30;10.93;;;15.80;99.90;;;;;;6163286;23;20647;-87
2023/09/18 01:53:06;;;;;;;19.93;10.30;;;15.80;99.90;;;;;;6237864;23;20166;-87
2023/09/18 01:55:32;;;;;;;19.27;10.43;;;15.80;99.90;;;;;;6188550;23;20169;-86
2023/09/18 01:57:58;;;;;;;45.57;10.57;;;15.80;99.90;;;;;;6185225;23;20217;-86
2023/09/18 02:00:24;;;;;;;25.40;11.43;;;15.80;99.90;;;;;;6183870;23;20303;-86
2023/09/18 02:02:50;;;;;;;53.70;9.93;;;15.80;99.90;;;;;;6162009;23;20217;-86
2023/09/18 02:05:16;;;;;;;42.80;9.50;;;15.80;99.90;;;;;;6187918;23;20201;-86
2023/09/18 02:07:42;;;;;;;34.90;9.90;;;15.80;99.90;;;;;;6163532;23;20240;-86
2023/09/18 02:10:08;;;;;;;23.43;9.37;;;15.80;99.90;;;;;;6162791;23;20220;-86
2023/09/18 02:12:34;;;;;;;16.17;9.83;;;15.80;99.90;;;;;;6187334;23;20272;-86
2023/09/18 02:15:05;;;;;;;21.37;10.03;;;15.80;99.90;;;;;;6187739;23;20269;-87
2023/09/18 02:17:30;;;;;;;13.97;8.67;;;15.80;99.90;;;;;;6212422;23;20197;-86
2023/09/18 02:19:56;;;;;;;16.57;8.63;;;15.90;99.90;;;;;;6162599;23;20163;-87
2023/09/18 02:22:22;;;;;;;17.20;10.00;;;15.90;99.90;;;;;;6163292;23;20158;-86
2023/09/18 02:24:48;;;;;;;17.90;10.23;;;15.90;99.90;;;;;;6187376;23;20710;-86
2023/09/18 02:27:14;;;;;;;16.07;8.10;;;15.90;99.90;;;;;;6187402;23;20583;-87
2023/09/18 02:29:39;;;;;;;18.87;9.83;;;15.80;99.90;;;;;;6186946;23;20190;-86
2023/09/18 02:32:05;;;;;;;14.57;8.93;;;15.90;99.90;;;;;;6162567;23;20161;-87
2023/09/18 02:34:31;;;;;;;15.87;9.33;;;15.80;99.90;;;;;;6163275;23;20162;-86
2023/09/18 02:36:57;;;;;;;14.80;9.83;;;15.80;99.90;;;;;;6182964;23;20229;-87
2023/09/18 02:39:22;;;;;;;13.03;7.57;;;15.80;99.90;;;;;;6159275;23;20193;-86
2023/09/18 02:41:48;;;;;;;13.77;9.57;;;15.80;99.90;;;;;;6187286;23;20197;-87
2023/09/18 02:44:14;;;;;;;16.13;9.47;;;15.90;99.90;;;;;;6161636;23;20286;-86
2023/09/18 02:46:45;;;;;;;16.33;8.87;;;15.90;99.90;;;;;;6163180;23;20174;-86
2023/09/18 02:49:11;;;;;;;17.17;9.60;;;16.00;99.90;;;;;;6188371;23;20190;-86
2023/09/18 02:51:37;;;;;;;14.87;10.20;;;15.90;99.90;;;;;;6162471;23;20198;-87
2023/09/18 02:54:03;;;;;;;14.37;9.57;;;16.00;99.90;;;;;;6162515;23;20194;-86
2023/09/18 02:56:28;;;;;;;11.53;8.70;;;16.10;99.90;;;;;;6162734;23;20190;-87
2023/09/18 02:58:54;;;;;;;13.17;8.40;;;16.10;99.90;;;;;;6183088;23;20220;-86
2023/09/18 03:01:20;;;;;;;19.73;10.73;;;16.10;99.90;;;;;;6158831;23;20170;-86
2023/09/18 03:03:45;;;;;;;15.37;9.07;;;16.20;99.90;;;;;;6158816;23;20202;-86
2023/09/18 03:06:11;;;;;;;15.17;8.00;;;16.20;99.90;;;;;;6157902;23;20212;-87
2023/09/18 03:08:38;;;;;;;18.20;9.80;;;16.30;99.90;;;;;;6159675;23;20292;-87
2023/09/18 03:11:11;;;;;;;14.63;8.43;;;16.30;99.90;;;;;;6187564;23;20507;-86
2023/09/18 03:13:37;;;;;;;15.83;9.77;;;16.30;99.90;;;;;;6187997;23;20149;-87
2023/09/18 03:16:03;;;;;;;12.80;8.90;;;16.40;99.90;;;;;;6162480;23;20226;-87
2023/09/18 03:18:28;;;;;;;15.87;9.20;;;16.30;99.90;;;;;;6162260;23;20730;-87
2023/09/18 03:20:54;;;;;;;13.30;9.57;;;16.40;99.90;;;;;;6162247;23;20271;-85
2023/09/18 03:23:20;;;;;;;14.33;9.17;;;16.40;99.90;;;;;;6184980;23;20331;-87
2023/09/18 03:25:46;;;;;;;16.20;9.50;;;16.40;99.90;;;;;;6162924;23;20471;-86
2023/09/18 03:28:11;;;;;;;16.13;9.17;;;16.50;99.90;;;;;;6186972;23;20202;-87
2023/09/18 03:30:37;;;;;;;13.87;9.67;;;16.50;99.90;;;;;;6162124;23;20197;-87
2023/09/18 03:33:03;;;;;;;13.57;8.27;;;16.60;99.90;;;;;;6187213;23;20208;-87
2023/09/18 03:35:31;;;;;;;11.83;9.30;;;16.70;99.90;;;;;;6187015;23;20194;-87
2023/09/18 03:37:57;;;;;;;14.83;9.37;;;16.70;99.90;;;;;;6182689;23;20587;-86
2023/09/18 03:40:23;;;;;;;16.13;9.73;;;16.80;99.90;;;;;;6158911;23;20166;-87
2023/09/18 03:42:49;;;;;;;15.07;9.00;;;16.90;99.90;;;;;;6182428;23;20243;-87
2023/09/18 03:45:17;;;;;;;16.87;10.33;;;16.90;99.90;;;;;;6186598;23;20914;-87
2023/09/18 03:47:42;;;;;;;19.53;11.40;;;16.90;99.90;;;;;;6188508;23;20216;-87
2023/09/18 03:50:09;;;;;;;19.53;10.17;;;16.90;99.90;;;;;;6162662;23;20158;-87
2023/09/18 03:52:35;;;;;;;12.67;9.80;;;16.90;99.90;;;;;;6238402;23;20181;-87
2023/09/18 03:55:01;;;;;;;16.43;9.10;;;17.00;99.90;;;;;;6164014;23;20248;-88
2023/09/18 03:57:27;;;;;;;14.30;10.63;;;17.00;99.90;;;;;;6189188;23;20193;-87
2023/09/18 03:59:53;;;;;;;15.97;10.83;;;17.00;99.90;;;;;;6211762;23;20290;-87
2023/09/18 04:02:20;;;;;;;17.43;11.47;;;17.10;99.90;;;;;;6185547;23;20497;-87
2023/09/18 04:04:48;;;;;;;15.60;10.33;;;17.10;99.90;;;;;;6166030;23;20212;-87
2023/09/18 04:07:16;;;;;;;15.67;10.50;;;17.20;99.90;;;;;;6189791;23;20205;-87
2023/09/18 04:09:42;;;;;;;18.37;9.83;;;17.10;99.90;;;;;;6166434;23;20224;-87
2023/09/18 04:12:09;;;;;;;19.93;10.60;;;17.10;99.90;;;;;;6240290;23;20197;-87
2023/09/18 04:14:35;;;;;;;17.50;10.37;;;17.10;99.90;;;;;;6189308;23;20194;-87
2023/09/18 04:17:02;;;;;;;18.27;8.90;;;17.20;99.90;;;;;;6189819;23;20158;-89
2023/09/18 04:19:28;;;;;;;17.07;9.80;;;17.10;99.90;;;;;;6165609;23;20173;-86
2023/09/18 04:21:54;;;;;;;18.30;10.07;;;17.20;99.90;;;;;;6189190;23;20292;-87
2023/09/18 04:24:20;;;;;;;15.97;10.50;;;17.20;99.90;;;;;;6215161;23;20636;-90
2023/09/18 04:26:45;;;;;;;14.40;9.47;;;17.20;99.90;;;;;;6164661;23;20248;-89
2023/09/18 04:29:11;;;;;;;16.10;10.27;;;17.20;99.90;;;;;;6164482;23;20212;-89
2023/09/18 04:31:38;;;;;;;16.90;11.07;;;17.20;99.90;;;;;;6189615;23;20162;-89
2023/09/18 04:34:04;;;;;;;17.83;10.80;;;17.20;99.90;;;;;;6188970;23;20222;-89
2023/09/18 04:36:30;;;;;;;14.13;9.53;;;17.30;99.90;;;;;;6189109;23;20273;-88
2023/09/18 04:38:55;;;;;;;16.80;9.00;;;17.30;99.90;;;;;;6189329;23;20213;-89
2023/09/18 04:41:21;;;;;;;26.43;10.20;;;17.20;99.90;;;;;;6189519;23;20209;-89
2023/09/18 04:43:47;;;;;;;18.10;9.57;;;17.30;99.90;;;;;;6164876;23;20185;-89
2023/09/18 04:46:13;;;;;;;19.43;10.97;;;17.30;99.90;;;;;;6188769;23;20268;-89
2023/09/18 04:48:39;;;;;;;17.53;10.53;;;17.30;99.90;;;;;;6239397;23;20209;-89
2023/09/18 04:51:05;;;;;;;16.30;9.80;;;17.40;99.90;;;;;;6214578;23;20193;-89
2023/09/18 04:53:32;;;;;;;21.30;11.40;;;17.30;99.90;;;;;;6189469;23;20232;-89
2023/09/18 04:55:57;;;;;;;16.87;9.17;;;17.30;99.90;;;;;;6216067;23;20618;-89
2023/09/18 04:58:23;;;;;;;22.10;12.40;;;17.40;99.90;;;;;;6162226;23;20158;-89
2023/09/18 05:00:56;;;;;;;20.17;10.83;;;17.30;99.90;;;;;;6184886;23;20198;-89
2023/09/18 05:03:22;;;;;;;14.40;9.70;;;17.40;99.90;;;;;;6160344;23;20639;-89
2023/09/18 05:05:48;;;;;;;16.90;9.73;;;17.40;99.90;;;;;;6189414;23;20263;-89
2023/09/18 05:08:14;;;;;;;17.10;10.37;;;17.50;99.90;;;;;;6215658;23;20205;-90
2023/09/18 05:10:40;;;;;;;21.10;11.20;;;17.50;99.90;;;;;;6164923;23;20165;-89
2023/09/18 05:13:06;;;;;;;14.17;8.50;;;17.70;99.90;;;;;;6164144;23;20220;-87
2023/09/18 05:15:33;;;;;;;13.93;8.80;;;17.70;99.90;;;;;;6189091;23;20198;-89
2023/09/18 05:18:00;;;;;;;15.40;9.00;;;17.90;99.90;;;;;;6213951;23;20297;-88
2023/09/18 05:20:28;;;;;;;18.17;9.97;;;17.90;99.90;;;;;;6238590;23;20297;-87
2023/09/18 05:22:54;;;;;;;14.93;9.57;;;17.90;99.90;;;;;;6213433;23;20162;-88
2023/09/18 05:25:22;;;;;;;15.67;10.50;;;17.90;99.90;;;;;;6214571;23;20150;-89
2023/09/18 05:27:54;;;;;;;18.43;10.37;;;17.90;99.90;;;;;;6187780;23;20279;-86
2023/09/18 05:30:28;;;;;;;19.43;9.10;;;18.00;99.90;;;;;;6213066;23;20190;-89
2023/09/18 05:33:04;;;;;;;15.73;8.73;;;18.00;99.90;;;;;;6209999;23;20190;-91
2023/09/18 05:35:33;;;;;;;16.17;9.47;;;18.00;99.90;;;;;;6175292;23;20260;-89
2023/09/18 05:37:59;;;;;;;13.27;8.70;;;18.00;99.90;;;;;;6213139;23;20181;-89
2023/09/18 05:40:26;;;;;;;15.70;9.93;;;18.00;99.90;;;;;;6214974;23;20157;-88
2023/09/18 05:42:54;;;;;;;19.57;9.00;;;18.00;99.90;;;;;;6214119;23;20252;-88
2023/09/18 05:45:21;;;;;;;16.70;9.20;;;18.00;99.90;;;;;;6213871;23;21007;-89
2023/09/18 05:47:48;;;;;;;15.20;7.90;;;18.00;99.90;;;;;;6239177;23;20213;-89
2023/09/18 05:50:15;;;;;;;16.03;9.77;;;18.10;99.90;;;;;;6214154;23;20201;-89
2023/09/18 05:52:42;;;;;;;12.43;9.20;;;18.10;99.90;;;;;;6240264;23;20157;-88
2023/09/18 05:55:08;;;;;;;15.50;9.37;;;18.20;99.90;;;;;;6213974;23;20639;-90
2023/09/18 05:57:34;;;;;;;16.80;9.83;;;18.20;99.90;;;;;;6214005;23;20635;-90
2023/09/18 06:00:00;;;;;;;17.23;9.50;;;18.20;99.90;;;;;;6184513;23;20200;-89
2023/09/18 06:02:26;;;;;;;16.97;9.80;;;18.30;99.90;;;;;;6186523;23;20239;-89
2023/09/18 06:05:00;;;;;;;15.23;9.00;;;18.40;99.90;;;;;;6189377;23;20906;-88
2023/09/18 06:07:30;;;;;;;18.60;10.30;;;18.50;99.90;;;;;;6239212;23;20252;-89
2023/09/18 06:09:57;;;;;;;20.83;10.93;;;18.60;99.90;;;;;;6213931;23;20394;-88
2023/09/18 06:12:23;;;;;;;21.30;10.23;;;18.60;99.90;;;;;;6163965;23;20201;-88
2023/09/18 06:14:49;;;;;;;18.70;11.20;;;18.80;99.90;;;;;;6213230;23;20190;-88
2023/09/18 06:17:16;;;;;;;16.57;10.40;;;18.90;99.90;;;;;;6188462;23;20197;-88
2023/09/18 06:19:42;;;;;;;20.07;11.57;;;18.90;99.90;;;;;;6214715;23;20229;-88
2023/09/18 06:22:08;;;;;;;22.57;11.23;;;18.90;99.90;;;;;;6189133;23;20205;-91
2023/09/18 06:24:35;;;;;;;16.50;10.37;;;19.00;99.90;;;;;;6238786;23;20198;-88
2023/09/18 06:27:01;;;;;;;18.93;11.23;;;19.00;99.90;;;;;;6239472;23;20204;-90
2023/09/18 06:29:26;;;;;;;14.90;9.30;;;19.00;99.90;;;;;;6214395;23;20309;-90
2023/09/18 06:31:52;;;;;;;13.87;8.93;;;19.00;99.90;;;;;;6164994;23;20254;-90
2023/09/18 06:34:18;;;;;;;15.83;8.63;;;19.10;99.90;;;;;;6163706;23;20190;-90
2023/09/18 06:36:44;;;;;;;15.30;8.23;;;19.00;99.90;;;;;;6189087;23;20194;-91
2023/09/18 06:39:09;;;;;;;17.03;8.43;;;19.10;99.90;;;;;;6188331;23;20194;-88
2023/09/18 06:41:35;;;;;;;18.73;9.93;;;19.10;99.90;;;;;;6163862;23;20220;-89
2023/09/18 06:44:03;;;;;;;17.37;10.23;;;19.10;99.90;;;;;;6164779;23;20158;-91
2023/09/18 06:46:32;;;;;;;19.23;10.90;;;19.20;99.90;;;;;;6189503;23;20194;-89
2023/09/18 06:49:00;;;;;;;19.17;9.90;;;19.20;99.90;;;;;;6188422;23;20210;-88
2023/09/18 06:51:29;;;;;;;15.20;9.10;;;19.20;99.90;;;;;;6189025;23;20205;-87
2023/09/18 06:53:57;;;;;;;13.73;8.03;;;19.20;99.90;;;;;;6214360;23;20247;-90
2023/09/18 06:56:24;;;;;;;15.53;8.53;;;19.20;99.90;;;;;;6212715;23;20232;-90
2023/09/18 06:58:51;;;;;;;9.20;6.30;;;19.10;99.90;;;;;;6161380;23;20474;-91
2023/09/18 07:01:20;;;;;;;11.20;6.93;;;19.10;99.90;;;;;;6208326;23;20536;-89
2023/09/18 07:03:50;;;;;;;10.70;5.67;;;19.10;99.90;;;;;;6186882;23;20689;-90
2023/09/18 07:06:16;;;;;;;8.27;4.40;;;19.00;99.90;;;;;;6187840;23;20225;-88
2023/09/18 07:08:44;;;;;;;8.03;4.73;;;19.00;99.90;;;;;;6163017;23;20202;-89
2023/09/18 07:11:10;;;;;;;6.80;4.87;;;19.00;99.90;;;;;;6213106;23;20158;-90
2023/09/18 07:13:36;;;;;;;8.43;5.03;;;18.90;99.90;;;;;;6188650;23;20196;-91
2023/09/18 07:16:03;;;;;;;7.03;3.60;;;18.90;99.90;;;;;;6162922;23;20206;-89
2023/09/18 07:18:29;;;;;;;6.43;3.17;;;18.90;99.90;;;;;;6163775;23;20245;-91
2023/09/18 07:20:55;;;;;;;5.87;3.33;;;19.00;99.90;;;;;;6187200;23;20220;-88
2023/09/18 07:23:21;;;;;;;5.10;2.57;;;18.90;99.90;;;;;;6187263;23;20208;-88
2023/09/18 07:25:49;;;;;;;2.77;2.23;;;18.90;99.90;;;;;;6188269;23;20173;-88
2023/09/18 07:28:17;;;;;;;4.70;2.37;;;19.00;99.90;;;;;;6187647;23;20225;-89
2023/09/18 07:30:43;;;;;;;7.23;3.00;;;19.00;99.90;;;;;;6187418;23;20273;-89
2023/09/18 07:33:10;;;;;;;3.60;2.83;;;19.00;99.90;;;;;;6212264;23;20290;-88
2023/09/18 07:35:36;;;;;;;3.20;2.90;;;19.00;99.90;;;;;;6187773;23;20196;-89
2023/09/18 07:38:02;;;;;;;5.47;2.87;;;19.00;99.90;;;;;;6212650;23;20165;-91
2023/09/18 07:40:28;;;;;;;5.37;2.57;;;19.00;99.90;;;;;;6163623;23;20538;-88
2023/09/18 07:42:53;;;;;;;6.20;2.93;;;19.00;99.90;;;;;;6162235;23;20193;-89
2023/09/18 07:45:19;;;;;;;3.57;2.73;;;19.00;99.90;;;;;;6186720;23;20280;-88
2023/09/18 07:47:45;;;;;;;5.10;3.07;;;19.00;99.90;;;;;;6162429;23;20209;-87
2023/09/18 07:50:11;;;;;;;4.93;3.17;;;19.10;99.90;;;;;;6212343;23;20241;-87
2023/09/18 07:52:37;;;;;;;8.67;4.27;;;19.10;99.90;;;;;;6187937;23;20158;-88
2023/09/18 07:55:03;;;;;;;4.73;3.23;;;19.10;99.90;;;;;;6162372;23;20197;-88
2023/09/18 07:57:30;;;;;;;5.93;3.80;;;19.10;99.90;;;;;;6211900;23;20197;-88
2023/09/18 07:59:56;;;;;;;4.63;3.40;;;19.10;99.90;;;;;;6158403;23;20194;-87
2023/09/18 08:02:22;;;;;;;11.00;3.33;;;19.20;99.90;;;;;;6157917;23;20198;-88
2023/09/18 08:04:48;;;;;;;2.97;2.50;;;19.20;99.90;;;;;;6162607;23;20158;-88
2023/09/18 08:07:14;;;;;;;6.13;3.30;;;19.20;99.90;;;;;;6186236;23;20859;-87
2023/09/18 08:09:40;;;;;;;7.03;3.43;;;19.20;99.90;;;;;;6186490;23;20194;-88
2023/09/18 08:12:06;;;;;;;4.07;2.87;;;19.20;99.90;;;;;;6186945;23;20198;-88
2023/09/18 08:14:35;;;;;;;4.20;3.40;;;19.20;99.90;;;;;;6186984;23;20220;-88
2023/09/18 08:17:02;;;;;;;5.97;3.20;;;19.30;99.90;;;;;;6187741;23;20172;-88
2023/09/18 08:19:28;;;;;;;7.47;4.00;;;19.30;99.90;;;;;;6188205;23;20162;-87
2023/09/18 08:21:55;;;;;;;2.80;2.13;;;19.40;99.90;;;;;;6161942;23;20252;-90
2023/09/18 08:24:22;;;;;;;5.90;3.70;;;19.30;99.90;;;;;;6188350;23;20189;-89
2023/09/18 08:26:48;;;;;;;5.87;3.30;;;19.30;99.90;;;;;;6237800;23;20643;-90
2023/09/18 08:29:15;;;;;;;7.43;4.50;;;19.40;99.90;;;;;;6212738;23;20194;-88
2023/09/18 08:31:41;;;;;;;7.07;4.97;;;19.50;99.90;;;;;;6213781;23;20162;-89
2023/09/18 08:34:07;;;;;;;5.17;3.83;;;19.50;99.90;;;;;;6187842;23;20198;-88
2023/09/18 08:36:33;;;;;;;7.17;4.63;;;19.40;99.90;;;;;;6187719;23;20244;-88
2023/09/18 08:38:58;;;;;;;6.20;3.90;;;19.50;99.90;;;;;;6187491;23;20236;-88
2023/09/18 08:41:27;;;;;;;8.93;4.40;;;19.50;99.90;;;;;;6213187;23;20186;-89
2023/09/18 08:43:59;;;;;;;6.30;5.33;;;19.50;99.90;;;;;;6191520;23;20606;-88
2023/09/18 08:46:26;;;;;;;7.23;3.93;;;19.50;99.90;;;;;;6239453;23;20508;-87
2023/09/18 08:48:52;;;;;;;5.83;4.20;;;19.50;99.90;;;;;;6189670;23;20770;-89
2023/09/18 08:51:18;;;;;;;5.97;3.83;;;19.50;99.90;;;;;;6214775;23;20221;-88
2023/09/18 08:53:45;;;;;;;6.17;3.60;;;19.60;99.90;;;;;;6214210;23;20193;-88
2023/09/18 08:56:13;;;;;;;4.27;3.10;;;19.60;99.90;;;;;;6214418;23;20250;-88
2023/09/18 08:58:42;;;;;;;5.40;3.60;;;19.70;99.90;;;;;;6187036;23;20212;-87
2023/09/18 09:01:11;;;;;;;4.13;2.93;;;19.80;99.90;;;;;;6210742;23;20198;-89
2023/09/18 09:03:39;;;;;;;4.93;3.50;;;19.90;99.90;;;;;;6190061;23;20273;-89
2023/09/18 09:06:06;;;;;;;6.10;3.57;;;20.00;99.90;;;;;;6189995;23;20205;-88
2023/09/18 09:08:33;;;;;;;4.63;3.60;;;20.20;99.90;;;;;;6189037;23;20202;-87
2023/09/18 09:10:59;;;;;;;6.07;3.27;;;20.20;99.90;;;;;;6189594;23;20190;-88
2023/09/18 09:13:28;;;;;;;4.87;3.50;;;20.20;99.90;;;;;;6189902;23;20177;-88
2023/09/18 09:15:56;;;;;;;4.47;3.33;;;20.30;99.90;;;;;;6189924;23;20209;-88
2023/09/18 09:18:27;;;;;;;7.33;4.53;;;20.30;99.90;;;;;;6214659;23;20229;-89
2023/09/18 09:21:05;;;;;;;3.57;3.07;;;20.40;99.90;;;;;;6215763;23;20276;-89
2023/09/18 09:23:52;;;;;;;6.27;3.63;;;20.40;99.90;;;;;;6214932;23;20189;-89
2023/09/18 09:26:20;;;;;;;7.87;4.23;;;20.50;99.90;;;;;;6214197;23;20204;-87
2023/09/18 09:28:48;;;;;;;5.87;3.50;;;20.90;99.90;;;;;;6189830;23;20235;-88
2023/09/18 09:31:34;;;;;;;5.10;3.97;;;21.10;99.90;;;;;;6189643;23;20197;-88
2023/09/18 09:34:01;;;;;;;7.80;3.93;;;21.50;99.90;;;;;;6214073;23;20200;-88
2023/09/18 09:36:27;;;;;;;9.40;4.27;;;21.30;99.90;;;;;;6189497;23;20556;-88
2023/09/18 09:38:57;;;;;;;5.07;4.33;;;21.30;99.90;;;;;;6163926;23;20217;-88
2023/09/18 09:41:23;;;;;;;6.60;4.40;;;21.20;99.90;;;;;;6214074;23;20643;-88
2023/09/18 09:43:51;;;;;;;7.43;5.13;;;21.30;99.90;;;;;;6214713;23;20205;-88
2023/09/18 09:46:18;;;;;;;8.77;6.10;;;21.30;99.90;;;;;;6212160;23;20233;-88
2023/09/18 09:49:01;;;;;;;7.03;5.27;;;21.40;99.90;;;;;;6213443;23;20667;-87
2023/09/18 09:51:29;;;;;;;6.93;4.73;;;21.50;99.90;;;;;;6213386;23;20221;-88
2023/09/18 09:53:55;;;;;;;9.20;6.07;;;21.40;99.90;;;;;;6163896;23;20193;-87
2023/09/18 09:56:21;;;;;;;7.50;6.00;;;21.60;99.90;;;;;;6189018;23;20221;-87
2023/09/18 09:59:02;;;;;;;8.50;5.30;;;21.60;99.90;;;;;;6185837;23;20185;-88
2023/09/18 10:01:31;;;;;;;7.77;5.80;;;21.60;99.90;;;;;;6235170;23;20190;-88
2023/09/18 10:03:58;;;;;;;10.77;6.33;;;21.70;99.90;;;;;;6212961;23;20194;-88
2023/09/18 10:06:25;;;;;;;10.57;6.50;;;21.60;99.90;;;;;;6188779;23;20200;-88
2023/09/18 10:08:51;;;;;;;7.53;5.78;;;21.80;99.90;;;;;;6187791;23;20194;-87
2023/09/18 10:11:20;;;;;;;8.02;6.55;;;22.50;99.90;;;;;;6163507;23;20224;-87
2023/09/18 10:13:51;;;;;;;7.32;5.63;;;22.60;99.90;;;;;;6189518;23;20534;-89
2023/09/18 10:16:21;;;;;;;8.75;6.68;;;22.30;99.90;;;;;;6213464;23;20206;-88
2023/09/18 10:18:52;;;;;;;11.73;6.63;;;22.00;99.90;;;;;;6213581;23;20273;-89
2023/09/18 10:21:35;;;;;;;10.63;6.55;;;22.00;99.90;;;;;;6215563;23;20717;-88
2023/09/18 10:24:16;;;;;;;8.60;6.55;;;22.40;99.90;;;;;;6238636;23;20205;-88
2023/09/18 10:26:56;;;;;;;10.00;6.50;;;22.60;99.90;;;;;;6239057;23;20208;-89
2023/09/18 10:29:24;;;;;;;8.23;6.15;;;22.60;99.90;;;;;;6214696;23;20220;-87
2023/09/18 10:31:52;;;;;;;8.98;6.57;;;22.80;99.90;;;;;;6164246;23;20165;-89
2023/09/18 10:34:18;;;;;;;5.30;4.80;;;23.20;99.90;;;;;;6188267;23;20205;-86
2023/09/18 10:36:47;;;;;;;7.03;5.68;;;22.90;99.90;;;;;;6212694;23;20708;-87
2023/09/18 10:39:13;;;;;;;11.77;6.45;;;22.60;99.90;;;;;;6212663;23;20197;-88
2023/09/18 10:41:41;;;;;;;8.73;5.15;;;22.60;99.90;;;;;;6212526;23;20197;-87
2023/09/18 10:44:08;;;;;;;6.68;5.40;;;22.40;99.90;;;;;;6187864;23;20193;-86
2023/09/18 10:46:34;;;;;;;7.20;5.55;;;22.60;99.90;;;;;;6238084;23;20247;-88
2023/09/18 10:49:03;;;;;;;9.52;5.60;;;22.90;99.90;;;;;;6187465;23;20260;-84
2023/09/18 10:51:29;;;;;;;4.95;4.22;;;23.10;99.90;;;;;;6187336;23;20197;-87
2023/09/18 10:53:56;;;;;;;7.90;5.07;;;23.00;99.90;;;;;;6162839;23;20631;-87
2023/09/18 10:56:22;;;;;;;4.95;4.20;;;22.80;99.90;;;;;;6212617;23;20697;-85
2023/09/18 10:58:58;;;;;;;7.38;4.25;;;22.60;99.90;;;;;;6183885;23;20162;-87
2023/09/18 11:01:27;;;;;;;5.68;4.30;;;22.20;99.90;;;;;;6208566;23;20249;-88
2023/09/18 11:03:59;;;;;;;7.72;4.45;;;22.00;99.90;;;;;;6185376;23;20205;-88
2023/09/18 11:06:26;;;;;;;6.63;3.92;;;21.80;99.90;;;;;;6213460;23;20194;-88
2023/09/18 11:09:01;;;;;;;5.55;3.67;;;22.30;99.90;;;;;;6186970;23;20205;-88
2023/09/18 11:11:29;;;;;;;4.72;3.85;;;23.40;99.90;;;;;;6211902;23;20193;-84
2023/09/18 11:13:56;;;;;;;8.30;4.25;;;24.20;99.90;;;;;;6163346;23;20760;-84
2023/09/18 11:16:28;;;;;;;3.47;2.70;;;24.70;99.90;;;;;;6212826;23;20166;-84
2023/09/18 11:19:00;;;;;;;3.63;3.10;;;25.10;99.90;;;;;;6236935;23;20206;-84
2023/09/18 11:21:30;;;;;;;3.13;2.55;;;25.50;99.90;;;;;;6237249;23;20280;-85
2023/09/18 11:24:04;;;;;;;4.00;3.10;;;25.30;99.90;;;;;;6211839;23;20255;-87
2023/09/18 11:26:36;;;;;;;5.30;3.20;;;25.60;99.90;;;;;;6187966;23;20193;-85
2023/09/18 11:29:05;;;;;;;4.95;2.97;;;25.30;99.90;;;;;;6211719;23;20505;-86
2023/09/18 11:31:54;;;;;;;2.33;2.13;;;25.00;99.90;;;;;;6212367;23;20923;-83
2023/09/18 11:34:26;;;;;;;2.47;2.03;;;24.90;99.90;;;;;;6211694;23;20626;-85
2023/09/18 11:36:52;;;;;;;2.50;2.30;;;24.40;99.90;;;;;;6185947;23;20198;-85
2023/09/18 11:39:35;;;;;;;5.13;1.90;;;24.50;99.90;;;;;;6236622;23;20202;-87
2023/09/18 11:42:19;;;;;;;4.32;2.67;;;24.50;99.90;;;;;;6186492;23;20223;-86
2023/09/18 11:44:48;;;;;;;2.28;2.03;;;23.70;99.90;;;;;;6211214;23;20254;-85
2023/09/18 11:47:19;;;;;;;6.25;2.90;;;23.50;99.90;;;;;;6210888;23;20646;-87
2023/09/18 11:49:57;;;;;;;3.60;2.47;;;23.90;99.90;;;;;;6212092;23;20153;-86
2023/09/18 11:52:26;;;;;;;5.82;2.97;;;24.40;99.90;;;;;;6213608;23;20592;-86
2023/09/18 11:54:53;;;;;;;3.85;3.30;;;24.70;99.90;;;;;;6186679;23;20260;-86
2023/09/18 11:57:19;;;;;;;5.32;3.13;;;24.40;99.90;;;;;;6185503;23;20224;-85
2023/09/18 11:59:48;;;;;;;3.97;3.05;;;24.30;99.90;;;;;;6182132;23;20224;-86
2023/09/18 12:02:28;;;;;;;5.18;3.30;;;24.10;99.90;;;;;;6210802;23;20250;-86
2023/09/18 12:04:55;;;;;;;3.63;3.22;;;24.00;99.90;;;;;;6186162;23;20149;-86
2023/09/18 12:07:20;;;;;;;3.83;3.17;;;23.80;99.90;;;;;;6211486;23;20189;-85
2023/09/18 12:09:49;;;;;;;3.42;3.13;;;23.40;99.90;;;;;;6161617;23;20197;-85
2023/09/18 12:12:17;;;;;;;3.35;3.05;;;23.10;99.90;;;;;;6211591;23;20198;-84
2023/09/18 12:14:44;;;;;;;3.78;3.47;;;23.20;99.90;;;;;;6162433;23;20190;-84
2023/09/18 12:17:17;;;;;;;3.25;2.45;;;23.20;99.90;;;;;;6237892;23;20172;-84
2023/09/18 12:19:55;;;;;;;3.50;2.83;;;23.60;99.90;;;;;;6188971;23;20147;-84
2023/09/18 12:22:29;;;;;;;8.10;3.50;;;23.50;99.90;;;;;;6238724;23;20273;-84
2023/09/18 12:25:15;;;;;;;5.53;3.00;;;23.20;99.90;;;;;;6188303;23;20222;-84
2023/09/18 12:27:41;;;;;;;5.13;3.28;;;22.80;99.90;;;;;;6163427;23;20225;-83
2023/09/18 12:30:08;;;;;;;8.77;4.38;;;22.50;99.90;;;;;;6188271;23;20202;-84
2023/09/18 12:32:40;;;;;;;4.80;3.08;;;22.50;99.90;;;;;;6213273;23;20291;-84
2023/09/18 12:35:07;;;;;;;7.18;4.43;;;22.40;99.90;;;;;;6188111;23;20336;-83
2023/09/18 12:37:35;;;;;;;8.68;3.90;;;22.30;99.90;;;;;;6213799;23;20252;-84
2023/09/18 12:40:00;;;;;;;4.60;3.78;;;22.60;99.90;;;;;;6187986;23;20198;-84
2023/09/18 12:42:28;;;;;;;5.40;4.68;;;22.60;99.90;;;;;;6163476;23;20251;-84